메인 페이지
METAR-TAF:

METAR-TAF

공항 :

룩셈부르크 핀델 국제공항

룩셈부르크, 룩셈부르크

위도: 49-37N, 경도: 006-13E, 고도: 376m

현재 날씨관측

예보는 35분 전, 14:50시(UTC)에 발표되었습니다.
남남서6kt
온도 3°C
습도 100%
기압 1006 hPa
시정: 2000m
고도 100ft 미만 상공 구름 조금
고도 100ft 상공 구름 보통
고도 300ft 상공 구름 많음
박무

METAR: ELLX 111450Z 21006KT 2000 BR FEW000 SCT001 BKN003 03/03 Q1006 TEMPO 2500 BKN005

시각: 16:25 (15:25 UTC)

예보

예보는 4 시간 25분 전, 11:00시(UTC)에 발표되었습니다.
예보 대상 시간: 11일 12시부터 12일 18시까지 (UTC)
9kt
시정: 0500m
고도 100ft 상공
안개
전환 중
11일 12시부터 11일 14시까지 (UTC)
시정: 3500m
고도 600ft 상공 구름 보통
고도 800ft 상공 구름 많음
비, 박무
전환 중
11일 17시부터 11일 19시까지 (UTC)
시정: 5000m
고도 800ft 상공 구름 많음
박무
확률 40% :
일시적
11일 23시부터 12일 08시까지 (UTC)
시정: 1500m
고도 300ft 상공 구름 많음
약한비, 눈
전환 중
12일 10시부터 12일 12시까지 (UTC)
남남서10kt, 순간 최대 풍속 20kt

TAF: ELLX 111100Z 1112/1218 18009KT 0500 FG VV001 BECMG 1112/1114 3500 RA BR SCT006 BKN008 BECMG 1117/1119 5000 BR NSW BKN008 PROB40 TEMPO 1123/1208 1500 -RASN BKN003 BECMG 1210/1212 20010G20KT

4,000개 이상의 공항 관측 자료 및 예보 (METAR 및 TAF 보고).

지도상에서 검색 가능한 기상관측소가 노란 점과 빨간 점으로 표시되어 있습니다.

기상관측소 명을 보려면 표시 위로 마우스를 이동하세요.

날씨 관측과 예보를 보려면 클릭하세요.

지도 변경 : 확대하려면 엑스 표시가 있는 녹색 버튼, 축소하려면 빼기 표시가 있는 녹색 버튼, 다음 페이지의 지도를 보려면 녹색 화살표를 클릭하세요.


METAR-TAF: